Terminal Aerodrome Forecast
Issued by NWS Mobile, AL

Home | Current Version | Previous Version | Text Only | Print | Product List | Glossary On
Versions: 1 2 3 4 5 6 7 8 9 10 11 12 13 14 15 16 17 18 19 20 21 22 23 24 25 26 27 28 29 30 31 32
000
FTUS44 KMOB 291138
TAFPNS
TAF
KPNS 291138Z 2912/3012 08006KT P6SM SCT006 SCT015
      TEMPO 2912/2914 BKN010
     FM291600 14010KT P6SM VCTS SCT025CB SCT040
     FM292000 17009KT P6SM SCT040=

USA.gov is the U.S. government's official web portal to all federal, state and local government web resources and services.